sensor_id;sensor_type;location;lat;lon;timestamp;P1;durP1;ratioP1;P2;durP2;ratioP2
15159;SDS011;7680;48.800;9.680;2023-04-07T00:01:16;7.60;;;6.90;;
15159;SDS011;7680;48.800;9.680;2023-04-07T00:03:49;7.87;;;7.17;;
15159;SDS011;7680;48.800;9.680;2023-04-07T00:06:22;8.27;;;7.57;;
15159;SDS011;7680;48.800;9.680;2023-04-07T00:08:55;7.87;;;7.27;;
15159;SDS011;7680;48.800;9.680;2023-04-07T00:11:28;6.93;;;6.43;;
15159;SDS011;7680;48.800;9.680;2023-04-07T00:14:03;7.43;;;6.73;;
15159;SDS011;7680;48.800;9.680;2023-04-07T00:16:36;8.17;;;7.47;;
15159;SDS011;7680;48.800;9.680;2023-04-07T00:19:09;7.53;;;6.83;;
15159;SDS011;7680;48.800;9.680;2023-04-07T00:21:42;7.60;;;7.00;;
15159;SDS011;7680;48.800;9.680;2023-04-07T00:24:15;8.43;;;7.73;;
15159;SDS011;7680;48.800;9.680;2023-04-07T00:27:04;8.80;;;7.90;;
15159;SDS011;7680;48.800;9.680;2023-04-07T00:29:38;8.60;;;7.90;;
15159;SDS011;7680;48.800;9.680;2023-04-07T00:32:13;9.10;;;8.30;;
15159;SDS011;7680;48.800;9.680;2023-04-07T00:34:46;8.53;;;7.87;;
15159;SDS011;7680;48.800;9.680;2023-04-07T00:37:19;9.17;;;8.30;;
15159;SDS011;7680;48.800;9.680;2023-04-07T00:39:52;9.17;;;8.37;;
15159;SDS011;7680;48.800;9.680;2023-04-07T00:42:27;10.40;;;9.40;;
15159;SDS011;7680;48.800;9.680;2023-04-07T00:45:01;9.77;;;8.77;;
15159;SDS011;7680;48.800;9.680;2023-04-07T00:47:35;8.80;;;8.00;;
15159;SDS011;7680;48.800;9.680;2023-04-07T00:50:09;9.70;;;8.80;;
15159;SDS011;7680;48.800;9.680;2023-04-07T00:52:43;9.37;;;8.47;;
15159;SDS011;7680;48.800;9.680;2023-04-07T00:55:17;9.23;;;8.43;;
15159;SDS011;7680;48.800;9.680;2023-04-07T00:57:50;9.33;;;8.57;;
15159;SDS011;7680;48.800;9.680;2023-04-07T01:00:25;9.53;;;8.73;;
15159;SDS011;7680;48.800;9.680;2023-04-07T01:03:00;9.73;;;8.83;;
15159;SDS011;7680;48.800;9.680;2023-04-07T01:05:45;10.07;;;9.17;;
15159;SDS011;7680;48.800;9.680;2023-04-07T01:08:27;9.73;;;8.83;;
15159;SDS011;7680;48.800;9.680;2023-04-07T01:11:07;10.43;;;9.43;;
15159;SDS011;7680;48.800;9.680;2023-04-07T01:13:45;10.60;;;9.60;;
15159;SDS011;7680;48.800;9.680;2023-04-07T01:16:23;9.20;;;8.30;;
15159;SDS011;7680;48.800;9.680;2023-04-07T01:19:08;9.10;;;8.30;;
15159;SDS011;7680;48.800;9.680;2023-04-07T01:21:48;9.87;;;8.03;;
15159;SDS011;7680;48.800;9.680;2023-04-07T01:24:30;10.47;;;9.37;;
15159;SDS011;7680;48.800;9.680;2023-04-07T01:27:18;11.53;;;9.87;;
15159;SDS011;7680;48.800;9.680;2023-04-07T01:30:02;9.80;;;8.70;;
15159;SDS011;7680;48.800;9.680;2023-04-07T01:32:36;10.43;;;9.43;;
15159;SDS011;7680;48.800;9.680;2023-04-07T01:35:12;8.73;;;7.87;;
15159;SDS011;7680;48.800;9.680;2023-04-07T01:37:47;9.90;;;8.90;;
15159;SDS011;7680;48.800;9.680;2023-04-07T01:40:22;10.73;;;9.63;;
15159;SDS011;7680;48.800;9.680;2023-04-07T01:42:56;8.93;;;8.10;;
15159;SDS011;7680;48.800;9.680;2023-04-07T01:45:32;10.53;;;9.40;;
15159;SDS011;7680;48.800;9.680;2023-04-07T01:48:07;10.13;;;8.90;;
15159;SDS011;7680;48.800;9.680;2023-04-07T01:50:40;9.77;;;8.77;;
15159;SDS011;7680;48.800;9.680;2023-04-07T01:53:14;10.63;;;9.67;;
15159;SDS011;7680;48.800;9.680;2023-04-07T01:55:48;9.60;;;8.60;;
15159;SDS011;7680;48.800;9.680;2023-04-07T01:58:21;10.80;;;9.67;;
15159;SDS011;7680;48.800;9.680;2023-04-07T02:00:57;11.30;;;9.73;;
15159;SDS011;7680;48.800;9.680;2023-04-07T02:03:32;11.40;;;10.23;;
15159;SDS011;7680;48.800;9.680;2023-04-07T02:06:13;10.93;;;9.83;;
15159;SDS011;7680;48.800;9.680;2023-04-07T02:08:53;12.00;;;10.33;;
15159;SDS011;7680;48.800;9.680;2023-04-07T02:11:31;11.27;;;9.77;;
15159;SDS011;7680;48.800;9.680;2023-04-07T02:14:05;11.83;;;10.60;;
15159;SDS011;7680;48.800;9.680;2023-04-07T02:16:40;12.47;;;11.17;;
15159;SDS011;7680;48.800;9.680;2023-04-07T02:19:17;10.87;;;9.77;;
15159;SDS011;7680;48.800;9.680;2023-04-07T02:21:51;11.97;;;10.77;;
15159;SDS011;7680;48.800;9.680;2023-04-07T02:24:25;12.53;;;11.23;;
15159;SDS011;7680;48.800;9.680;2023-04-07T02:26:58;13.27;;;11.50;;
15159;SDS011;7680;48.800;9.680;2023-04-07T02:29:32;12.00;;;10.83;;
15159;SDS011;7680;48.800;9.680;2023-04-07T02:32:06;13.13;;;10.63;;
15159;SDS011;7680;48.800;9.680;2023-04-07T02:34:40;11.40;;;10.33;;
15159;SDS011;7680;48.800;9.680;2023-04-07T02:37:13;11.73;;;10.53;;
15159;SDS011;7680;48.800;9.680;2023-04-07T02:39:46;13.40;;;11.27;;
15159;SDS011;7680;48.800;9.680;2023-04-07T02:42:19;11.73;;;10.13;;
15159;SDS011;7680;48.800;9.680;2023-04-07T02:44:52;13.40;;;12.10;;
15159;SDS011;7680;48.800;9.680;2023-04-07T02:47:26;12.73;;;11.47;;
15159;SDS011;7680;48.800;9.680;2023-04-07T02:49:59;13.17;;;11.67;;
15159;SDS011;7680;48.800;9.680;2023-04-07T02:52:32;13.83;;;12.43;;
15159;SDS011;7680;48.800;9.680;2023-04-07T02:55:06;13.97;;;12.47;;
15159;SDS011;7680;48.800;9.680;2023-04-07T02:57:40;13.70;;;12.27;;
15159;SDS011;7680;48.800;9.680;2023-04-07T03:00:14;14.80;;;13.17;;
15159;SDS011;7680;48.800;9.680;2023-04-07T03:02:48;14.90;;;13.23;;
15159;SDS011;7680;48.800;9.680;2023-04-07T03:05:22;13.87;;;12.43;;
15159;SDS011;7680;48.800;9.680;2023-04-07T03:07:55;14.60;;;12.73;;
15159;SDS011;7680;48.800;9.680;2023-04-07T03:10:28;13.90;;;12.47;;
15159;SDS011;7680;48.800;9.680;2023-04-07T03:13:01;15.07;;;12.53;;
15159;SDS011;7680;48.800;9.680;2023-04-07T03:15:34;15.07;;;13.47;;
15159;SDS011;7680;48.800;9.680;2023-04-07T03:18:09;13.03;;;11.73;;
15159;SDS011;7680;48.800;9.680;2023-04-07T03:20:42;14.73;;;12.93;;
15159;SDS011;7680;48.800;9.680;2023-04-07T03:23:17;13.13;;;11.83;;
15159;SDS011;7680;48.800;9.680;2023-04-07T03:25:50;15.13;;;13.40;;
15159;SDS011;7680;48.800;9.680;2023-04-07T03:28:23;14.97;;;13.47;;
15159;SDS011;7680;48.800;9.680;2023-04-07T03:30:56;15.03;;;13.03;;
15159;SDS011;7680;48.800;9.680;2023-04-07T03:33:31;14.57;;;13.13;;
15159;SDS011;7680;48.800;9.680;2023-04-07T03:36:04;14.77;;;12.83;;
15159;SDS011;7680;48.800;9.680;2023-04-07T03:38:39;14.93;;;13.33;;
15159;SDS011;7680;48.800;9.680;2023-04-07T03:41:12;13.23;;;11.83;;
15159;SDS011;7680;48.800;9.680;2023-04-07T03:43:45;12.90;;;11.33;;
15159;SDS011;7680;48.800;9.680;2023-04-07T03:46:18;13.50;;;12.20;;
15159;SDS011;7680;48.800;9.680;2023-04-07T03:48:53;14.43;;;12.43;;
15159;SDS011;7680;48.800;9.680;2023-04-07T03:51:26;13.73;;;11.97;;
15159;SDS011;7680;48.800;9.680;2023-04-07T03:53:59;13.63;;;11.50;;
15159;SDS011;7680;48.800;9.680;2023-04-07T03:56:32;12.97;;;11.60;;
15159;SDS011;7680;48.800;9.680;2023-04-07T03:59:05;12.40;;;11.30;;
15159;SDS011;7680;48.800;9.680;2023-04-07T04:01:39;11.43;;;10.33;;
15159;SDS011;7680;48.800;9.680;2023-04-07T04:04:14;13.23;;;11.97;;
15159;SDS011;7680;48.800;9.680;2023-04-07T04:06:47;12.83;;;11.53;;
15159;SDS011;7680;48.800;9.680;2023-04-07T04:09:21;12.67;;;11.20;;
15159;SDS011;7680;48.800;9.680;2023-04-07T04:11:54;12.73;;;11.43;;
15159;SDS011;7680;48.800;9.680;2023-04-07T04:14:27;12.50;;;11.27;;
15159;SDS011;7680;48.800;9.680;2023-04-07T04:17:00;13.83;;;12.43;;
15159;SDS011;7680;48.800;9.680;2023-04-07T04:19:37;13.73;;;12.30;;
15159;SDS011;7680;48.800;9.680;2023-04-07T04:22:10;13.43;;;12.10;;
15159;SDS011;7680;48.800;9.680;2023-04-07T04:24:43;13.23;;;11.93;;
15159;SDS011;7680;48.800;9.680;2023-04-07T04:27:16;13.73;;;12.20;;
15159;SDS011;7680;48.800;9.680;2023-04-07T04:29:49;13.67;;;12.13;;
15159;SDS011;7680;48.800;9.680;2023-04-07T04:32:22;13.27;;;11.87;;
15159;SDS011;7680;48.800;9.680;2023-04-07T04:34:57;14.07;;;12.60;;
15159;SDS011;7680;48.800;9.680;2023-04-07T04:37:30;13.30;;;11.27;;
15159;SDS011;7680;48.800;9.680;2023-04-07T04:40:03;14.77;;;13.17;;
15159;SDS011;7680;48.800;9.680;2023-04-07T04:42:38;13.77;;;11.43;;
15159;SDS011;7680;48.800;9.680;2023-04-07T04:45:12;13.80;;;12.47;;
15159;SDS011;7680;48.800;9.680;2023-04-07T04:47:45;13.23;;;11.93;;
15159;SDS011;7680;48.800;9.680;2023-04-07T04:50:19;14.53;;;13.03;;
15159;SDS011;7680;48.800;9.680;2023-04-07T04:52:52;14.70;;;12.77;;
15159;SDS011;7680;48.800;9.680;2023-04-07T04:55:25;15.03;;;13.17;;
15159;SDS011;7680;48.800;9.680;2023-04-07T04:57:58;14.60;;;13.07;;
15159;SDS011;7680;48.800;9.680;2023-04-07T05:00:32;14.20;;;12.80;;
15159;SDS011;7680;48.800;9.680;2023-04-07T05:03:05;14.07;;;12.40;;
15159;SDS011;7680;48.800;9.680;2023-04-07T05:05:39;16.00;;;13.83;;
15159;SDS011;7680;48.800;9.680;2023-04-07T05:08:12;14.27;;;12.77;;
15159;SDS011;7680;48.800;9.680;2023-04-07T05:10:45;16.00;;;13.23;;
15159;SDS011;7680;48.800;9.680;2023-04-07T05:13:18;16.33;;;14.27;;
15159;SDS011;7680;48.800;9.680;2023-04-07T05:15:51;15.63;;;13.90;;
15159;SDS011;7680;48.800;9.680;2023-04-07T05:18:25;15.47;;;13.30;;
15159;SDS011;7680;48.800;9.680;2023-04-07T05:21:00;16.03;;;14.33;;
15159;SDS011;7680;48.800;9.680;2023-04-07T05:23:33;16.83;;;14.20;;
15159;SDS011;7680;48.800;9.680;2023-04-07T05:26:06;15.37;;;13.23;;
15159;SDS011;7680;48.800;9.680;2023-04-07T05:28:39;15.80;;;13.20;;
15159;SDS011;7680;48.800;9.680;2023-04-07T05:31:12;16.00;;;14.13;;
15159;SDS011;7680;48.800;9.680;2023-04-07T05:33:45;16.37;;;14.60;;
15159;SDS011;7680;48.800;9.680;2023-04-07T05:36:20;17.37;;;15.10;;
15159;SDS011;7680;48.800;9.680;2023-04-07T05:38:53;14.87;;;13.20;;
15159;SDS011;7680;48.800;9.680;2023-04-07T05:41:27;17.00;;;13.53;;
15159;SDS011;7680;48.800;9.680;2023-04-07T05:44:00;16.53;;;13.67;;
15159;SDS011;7680;48.800;9.680;2023-04-07T05:46:33;15.63;;;14.03;;
15159;SDS011;7680;48.800;9.680;2023-04-07T05:49:06;15.00;;;12.97;;
15159;SDS011;7680;48.800;9.680;2023-04-07T05:51:51;17.87;;;14.73;;
15159;SDS011;7680;48.800;9.680;2023-04-07T05:54:24;14.93;;;13.33;;
15159;SDS011;7680;48.800;9.680;2023-04-07T05:56:57;16.83;;;15.07;;
15159;SDS011;7680;48.800;9.680;2023-04-07T05:59:30;16.23;;;14.50;;
15159;SDS011;7680;48.800;9.680;2023-04-07T06:02:03;17.30;;;14.47;;
15159;SDS011;7680;48.800;9.680;2023-04-07T06:04:37;17.07;;;14.63;;
15159;SDS011;7680;48.800;9.680;2023-04-07T06:07:11;18.27;;;16.07;;
15159;SDS011;7680;48.800;9.680;2023-04-07T06:09:44;16.60;;;14.83;;
15159;SDS011;7680;48.800;9.680;2023-04-07T06:12:17;16.60;;;14.23;;
15159;SDS011;7680;48.800;9.680;2023-04-07T06:14:51;16.67;;;14.40;;
15159;SDS011;7680;48.800;9.680;2023-04-07T06:17:25;17.20;;;14.70;;
15159;SDS011;7680;48.800;9.680;2023-04-07T06:19:58;17.10;;;15.20;;
15159;SDS011;7680;48.800;9.680;2023-04-07T06:22:32;17.60;;;15.70;;
15159;SDS011;7680;48.800;9.680;2023-04-07T06:25:06;17.47;;;14.60;;
15159;SDS011;7680;48.800;9.680;2023-04-07T06:27:40;17.03;;;14.73;;
15159;SDS011;7680;48.800;9.680;2023-04-07T06:30:13;17.67;;;15.87;;
15159;SDS011;7680;48.800;9.680;2023-04-07T06:32:47;17.13;;;15.33;;
15159;SDS011;7680;48.800;9.680;2023-04-07T06:35:20;17.27;;;15.60;;
15159;SDS011;7680;48.800;9.680;2023-04-07T06:37:54;17.37;;;15.43;;
15159;SDS011;7680;48.800;9.680;2023-04-07T06:40:28;16.93;;;15.13;;
15159;SDS011;7680;48.800;9.680;2023-04-07T06:43:01;17.33;;;15.63;;
15159;SDS011;7680;48.800;9.680;2023-04-07T06:45:34;18.17;;;15.97;;
15159;SDS011;7680;48.800;9.680;2023-04-07T06:48:07;17.27;;;15.47;;
15159;SDS011;7680;48.800;9.680;2023-04-07T06:50:41;17.60;;;14.97;;
15159;SDS011;7680;48.800;9.680;2023-04-07T06:53:19;19.17;;;16.43;;
15159;SDS011;7680;48.800;9.680;2023-04-07T06:56:01;20.50;;;17.70;;
15159;SDS011;7680;48.800;9.680;2023-04-07T06:58:36;18.70;;;16.70;;
15159;SDS011;7680;48.800;9.680;2023-04-07T07:01:09;17.73;;;15.83;;
15159;SDS011;7680;48.800;9.680;2023-04-07T07:03:42;16.20;;;14.50;;
15159;SDS011;7680;48.800;9.680;2023-04-07T07:06:17;18.73;;;16.23;;
15159;SDS011;7680;48.800;9.680;2023-04-07T07:08:51;19.13;;;16.53;;
15159;SDS011;7680;48.800;9.680;2023-04-07T07:11:24;18.60;;;16.60;;
15159;SDS011;7680;48.800;9.680;2023-04-07T07:13:57;18.57;;;16.20;;
15159;SDS011;7680;48.800;9.680;2023-04-07T07:16:30;18.77;;;16.73;;
15159;SDS011;7680;48.800;9.680;2023-04-07T07:19:03;19.30;;;16.80;;
15159;SDS011;7680;48.800;9.680;2023-04-07T07:21:37;19.60;;;17.60;;
15159;SDS011;7680;48.800;9.680;2023-04-07T07:24:11;19.60;;;17.50;;
15159;SDS011;7680;48.800;9.680;2023-04-07T07:26:44;20.47;;;18.30;;
15159;SDS011;7680;48.800;9.680;2023-04-07T07:29:17;18.77;;;16.80;;
15159;SDS011;7680;48.800;9.680;2023-04-07T07:31:51;19.63;;;17.63;;
15159;SDS011;7680;48.800;9.680;2023-04-07T07:34:25;20.67;;;17.50;;
15159;SDS011;7680;48.800;9.680;2023-04-07T07:36:59;19.10;;;17.10;;
15159;SDS011;7680;48.800;9.680;2023-04-07T07:39:33;19.37;;;17.30;;
15159;SDS011;7680;48.800;9.680;2023-04-07T07:42:06;17.13;;;15.43;;
15159;SDS011;7680;48.800;9.680;2023-04-07T07:44:39;18.20;;;16.30;;
15159;SDS011;7680;48.800;9.680;2023-04-07T07:47:12;19.43;;;17.43;;
15159;SDS011;7680;48.800;9.680;2023-04-07T07:49:45;18.07;;;16.17;;
15159;SDS011;7680;48.800;9.680;2023-04-07T07:52:19;19.23;;;17.33;;
15159;SDS011;7680;48.800;9.680;2023-04-07T07:54:53;18.50;;;16.47;;
15159;SDS011;7680;48.800;9.680;2023-04-07T07:57:26;18.83;;;16.83;;
15159;SDS011;7680;48.800;9.680;2023-04-07T08:00:01;18.20;;;16.30;;
15159;SDS011;7680;48.800;9.680;2023-04-07T08:02:34;18.30;;;15.07;;
15159;SDS011;7680;48.800;9.680;2023-04-07T08:05:09;19.40;;;17.40;;
15159;SDS011;7680;48.800;9.680;2023-04-07T08:07:43;17.60;;;15.70;;
15159;SDS011;7680;48.800;9.680;2023-04-07T08:10:18;17.13;;;15.43;;
15159;SDS011;7680;48.800;9.680;2023-04-07T08:12:52;17.40;;;15.57;;
15159;SDS011;7680;48.800;9.680;2023-04-07T08:15:25;18.80;;;16.90;;
15159;SDS011;7680;48.800;9.680;2023-04-07T08:17:58;16.80;;;15.17;;
15159;SDS011;7680;48.800;9.680;2023-04-07T08:20:34;19.43;;;17.40;;
15159;SDS011;7680;48.800;9.680;2023-04-07T08:23:08;17.30;;;15.53;;
15159;SDS011;7680;48.800;9.680;2023-04-07T08:25:42;17.00;;;15.30;;
15159;SDS011;7680;48.800;9.680;2023-04-07T08:28:15;18.00;;;16.10;;
15159;SDS011;7680;48.800;9.680;2023-04-07T08:30:48;16.67;;;15.07;;
15159;SDS011;7680;48.800;9.680;2023-04-07T08:33:21;17.07;;;15.37;;
15159;SDS011;7680;48.800;9.680;2023-04-07T08:35:54;16.67;;;14.97;;
15159;SDS011;7680;48.800;9.680;2023-04-07T08:38:28;15.63;;;14.20;;
15159;SDS011;7680;48.800;9.680;2023-04-07T08:41:07;15.83;;;14.23;;
15159;SDS011;7680;48.800;9.680;2023-04-07T08:43:43;16.17;;;14.57;;
15159;SDS011;7680;48.800;9.680;2023-04-07T08:46:20;15.83;;;14.33;;
15159;SDS011;7680;48.800;9.680;2023-04-07T08:48:55;16.47;;;14.77;;
15159;SDS011;7680;48.800;9.680;2023-04-07T08:51:29;15.70;;;14.17;;
15159;SDS011;7680;48.800;9.680;2023-04-07T08:54:05;14.97;;;13.57;;
15159;SDS011;7680;48.800;9.680;2023-04-07T08:56:43;15.77;;;14.17;;
15159;SDS011;7680;48.800;9.680;2023-04-07T08:59:16;20.70;;;18.80;;
15159;SDS011;7680;48.800;9.680;2023-04-07T09:01:53;14.77;;;13.30;;
15159;SDS011;7680;48.800;9.680;2023-04-07T09:04:26;14.77;;;13.32;;
15159;SDS011;7680;48.800;9.680;2023-04-07T09:07:00;13.80;;;12.50;;
15159;SDS011;7680;48.800;9.680;2023-04-07T09:09:33;12.52;;;11.43;;
15159;SDS011;7680;48.800;9.680;2023-04-07T09:12:08;12.27;;;11.18;;
15159;SDS011;7680;48.800;9.680;2023-04-07T09:14:41;11.45;;;10.45;;
15159;SDS011;7680;48.800;9.680;2023-04-07T09:17:14;11.07;;;10.18;;
15159;SDS011;7680;48.800;9.680;2023-04-07T09:19:47;24.58;;;18.42;;
15159;SDS011;7680;48.800;9.680;2023-04-07T09:22:33;31.85;;;28.63;;
15159;SDS011;7680;48.800;9.680;2023-04-07T09:25:08;10.43;;;9.48;;
15159;SDS011;7680;48.800;9.680;2023-04-07T09:27:58;9.55;;;8.75;;
15159;SDS011;7680;48.800;9.680;2023-04-07T09:30:33;13.10;;;12.00;;
15159;SDS011;7680;48.800;9.680;2023-04-07T09:33:06;12.52;;;11.43;;
15159;SDS011;7680;48.800;9.680;2023-04-07T09:35:49;14.90;;;13.57;;
15159;SDS011;7680;48.800;9.680;2023-04-07T09:38:31;10.32;;;9.50;;
15159;SDS011;7680;48.800;9.680;2023-04-07T09:41:06;9.45;;;8.55;;
15159;SDS011;7680;48.800;9.680;2023-04-07T09:43:42;14.27;;;11.68;;
15159;SDS011;7680;48.800;9.680;2023-04-07T09:46:17;9.95;;;9.02;;
15159;SDS011;7680;48.800;9.680;2023-04-07T09:48:59;11.65;;;10.45;;
15159;SDS011;7680;48.800;9.680;2023-04-07T09:51:35;10.10;;;9.10;;
15159;SDS011;7680;48.800;9.680;2023-04-07T09:54:09;9.60;;;8.77;;
15159;SDS011;7680;48.800;9.680;2023-04-07T09:56:42;10.70;;;9.70;;
15159;SDS011;7680;48.800;9.680;2023-04-07T09:59:18;10.45;;;9.55;;
15159;SDS011;7680;48.800;9.680;2023-04-07T10:01:52;10.70;;;9.57;;
15159;SDS011;7680;48.800;9.680;2023-04-07T10:04:27;9.70;;;8.90;;
15159;SDS011;7680;48.800;9.680;2023-04-07T10:07:01;9.32;;;8.40;;
15159;SDS011;7680;48.800;9.680;2023-04-07T10:09:34;10.05;;;9.25;;
15159;SDS011;7680;48.800;9.680;2023-04-07T10:12:07;9.93;;;9.05;;
15159;SDS011;7680;48.800;9.680;2023-04-07T10:14:42;9.60;;;8.57;;
15159;SDS011;7680;48.800;9.680;2023-04-07T10:17:17;9.70;;;8.80;;
15159;SDS011;7680;48.800;9.680;2023-04-07T10:19:51;14.77;;;13.40;;
15159;SDS011;7680;48.800;9.680;2023-04-07T10:22:25;12.38;;;11.18;;
15159;SDS011;7680;48.800;9.680;2023-04-07T10:24:59;10.02;;;9.13;;
15159;SDS011;7680;48.800;9.680;2023-04-07T10:27:39;8.70;;;7.95;;
15159;SDS011;7680;48.800;9.680;2023-04-07T10:30:22;9.95;;;8.98;;
15159;SDS011;7680;48.800;9.680;2023-04-07T10:32:58;11.90;;;10.48;;
15159;SDS011;7680;48.800;9.680;2023-04-07T10:36:01;8.25;;;7.45;;
15159;SDS011;7680;48.800;9.680;2023-04-07T10:38:36;8.50;;;7.80;;
15159;SDS011;7680;48.800;9.680;2023-04-07T10:44:06;8.02;;;7.32;;
15159;SDS011;7680;48.800;9.680;2023-04-07T10:49:37;7.88;;;7.15;;
15159;SDS011;7680;48.800;9.680;2023-04-07T10:52:20;7.97;;;7.28;;
15159;SDS011;7680;48.800;9.680;2023-04-07T10:58:14;8.20;;;7.50;;
15159;SDS011;7680;48.800;9.680;2023-04-07T11:01:17;7.53;;;6.53;;
15159;SDS011;7680;48.800;9.680;2023-04-07T11:03:57;8.00;;;6.93;;
15159;SDS011;7680;48.800;9.680;2023-04-07T11:06:31;7.25;;;6.63;;
15159;SDS011;7680;48.800;9.680;2023-04-07T11:09:04;8.52;;;7.50;;
15159;SDS011;7680;48.800;9.680;2023-04-07T11:11:50;8.23;;;7.32;;
15159;SDS011;7680;48.800;9.680;2023-04-07T11:14:24;7.93;;;7.13;;
15159;SDS011;7680;48.800;9.680;2023-04-07T11:16:58;7.45;;;6.75;;
15159;SDS011;7680;48.800;9.680;2023-04-07T11:19:41;7.35;;;6.75;;
15159;SDS011;7680;48.800;9.680;2023-04-07T11:22:22;7.72;;;7.03;;
15159;SDS011;7680;48.800;9.680;2023-04-07T11:25:00;6.97;;;6.28;;
15159;SDS011;7680;48.800;9.680;2023-04-07T11:27:34;7.63;;;6.93;;
15159;SDS011;7680;48.800;9.680;2023-04-07T11:30:07;6.90;;;6.30;;
15159;SDS011;7680;48.800;9.680;2023-04-07T11:32:42;6.93;;;6.32;;
15159;SDS011;7680;48.800;9.680;2023-04-07T11:35:22;7.57;;;6.88;;
15159;SDS011;7680;48.800;9.680;2023-04-07T11:37:56;6.72;;;6.03;;
15159;SDS011;7680;48.800;9.680;2023-04-07T11:40:31;6.32;;;5.72;;
15159;SDS011;7680;48.800;9.680;2023-04-07T11:43:14;5.75;;;5.25;;
15159;SDS011;7680;48.800;9.680;2023-04-07T11:46:04;7.38;;;6.72;;
15159;SDS011;7680;48.800;9.680;2023-04-07T11:48:40;6.80;;;5.78;;
15159;SDS011;7680;48.800;9.680;2023-04-07T11:51:16;6.53;;;5.93;;
15159;SDS011;7680;48.800;9.680;2023-04-07T11:53:53;7.05;;;6.45;;
15159;SDS011;7680;48.800;9.680;2023-04-07T11:56:27;6.30;;;5.45;;
15159;SDS011;7680;48.800;9.680;2023-04-07T11:59:00;5.13;;;4.63;;
15159;SDS011;7680;48.800;9.680;2023-04-07T12:01:40;6.00;;;5.50;;
15159;SDS011;7680;48.800;9.680;2023-04-07T12:04:13;5.88;;;5.35;;
15159;SDS011;7680;48.800;9.680;2023-04-07T12:06:48;5.97;;;5.35;;
15159;SDS011;7680;48.800;9.680;2023-04-07T12:09:24;6.35;;;5.75;;
15159;SDS011;7680;48.800;9.680;2023-04-07T12:12:02;6.65;;;5.35;;
15159;SDS011;7680;48.800;9.680;2023-04-07T12:14:38;6.13;;;5.50;;
15159;SDS011;7680;48.800;9.680;2023-04-07T12:17:18;7.20;;;5.45;;
15159;SDS011;7680;48.800;9.680;2023-04-07T12:19:52;5.93;;;5.43;;
15159;SDS011;7680;48.800;9.680;2023-04-07T12:22:26;6.05;;;5.55;;
15159;SDS011;7680;48.800;9.680;2023-04-07T12:24:59;6.28;;;5.78;;
15159;SDS011;7680;48.800;9.680;2023-04-07T12:27:32;5.88;;;5.22;;
15159;SDS011;7680;48.800;9.680;2023-04-07T12:30:13;5.40;;;4.93;;
15159;SDS011;7680;48.800;9.680;2023-04-07T12:32:46;6.25;;;5.10;;
15159;SDS011;7680;48.800;9.680;2023-04-07T12:35:20;5.32;;;4.78;;
15159;SDS011;7680;48.800;9.680;2023-04-07T12:37:55;6.63;;;4.88;;
15159;SDS011;7680;48.800;9.680;2023-04-07T12:40:28;5.47;;;4.90;;
15159;SDS011;7680;48.800;9.680;2023-04-07T12:43:01;6.22;;;5.13;;
15159;SDS011;7680;48.800;9.680;2023-04-07T12:45:35;5.22;;;4.78;;
15159;SDS011;7680;48.800;9.680;2023-04-07T12:48:08;5.32;;;4.40;;
15159;SDS011;7680;48.800;9.680;2023-04-07T12:50:41;5.13;;;4.65;;
15159;SDS011;7680;48.800;9.680;2023-04-07T12:53:15;4.90;;;4.43;;
15159;SDS011;7680;48.800;9.680;2023-04-07T12:55:48;4.97;;;4.05;;
15159;SDS011;7680;48.800;9.680;2023-04-07T12:58:21;4.13;;;3.70;;
15159;SDS011;7680;48.800;9.680;2023-04-07T13:00:55;4.22;;;3.83;;
15159;SDS011;7680;48.800;9.680;2023-04-07T13:03:28;5.32;;;4.10;;
15159;SDS011;7680;48.800;9.680;2023-04-07T13:06:02;4.38;;;3.97;;
15159;SDS011;7680;48.800;9.680;2023-04-07T13:08:37;5.03;;;4.30;;
15159;SDS011;7680;48.800;9.680;2023-04-07T13:11:11;4.68;;;4.20;;
15159;SDS011;7680;48.800;9.680;2023-04-07T13:13:44;5.20;;;4.20;;
15159;SDS011;7680;48.800;9.680;2023-04-07T13:16:18;4.57;;;4.18;;
15159;SDS011;7680;48.800;9.680;2023-04-07T13:18:51;4.78;;;4.13;;
15159;SDS011;7680;48.800;9.680;2023-04-07T13:21:24;5.32;;;4.18;;
15159;SDS011;7680;48.800;9.680;2023-04-07T13:24:17;6.57;;;4.45;;
15159;SDS011;7680;48.800;9.680;2023-04-07T13:26:51;4.25;;;3.85;;
15159;SDS011;7680;48.800;9.680;2023-04-07T13:29:24;4.13;;;3.33;;
15159;SDS011;7680;48.800;9.680;2023-04-07T13:32:03;4.85;;;3.67;;
15159;SDS011;7680;48.800;9.680;2023-04-07T13:34:37;4.13;;;3.50;;
15159;SDS011;7680;48.800;9.680;2023-04-07T13:37:11;3.80;;;3.40;;
15159;SDS011;7680;48.800;9.680;2023-04-07T13:39:45;5.15;;;4.07;;
15159;SDS011;7680;48.800;9.680;2023-04-07T13:42:18;5.18;;;4.15;;
15159;SDS011;7680;48.800;9.680;2023-04-07T13:44:52;5.47;;;4.22;;
15159;SDS011;7680;48.800;9.680;2023-04-07T13:47:25;4.68;;;3.92;;
15159;SDS011;7680;48.800;9.680;2023-04-07T13:50:00;3.30;;;3.05;;
15159;SDS011;7680;48.800;9.680;2023-04-07T13:52:35;4.03;;;3.47;;
15159;SDS011;7680;48.800;9.680;2023-04-07T13:55:09;5.28;;;3.97;;
15159;SDS011;7680;48.800;9.680;2023-04-07T13:57:42;5.38;;;3.70;;
15159;SDS011;7680;48.800;9.680;2023-04-07T14:00:16;5.88;;;3.80;;
15159;SDS011;7680;48.800;9.680;2023-04-07T14:02:49;3.95;;;3.60;;
15159;SDS011;7680;48.800;9.680;2023-04-07T14:05:23;5.18;;;4.00;;
15159;SDS011;7680;48.800;9.680;2023-04-07T14:07:56;6.50;;;3.70;;
15159;SDS011;7680;48.800;9.680;2023-04-07T14:10:30;4.53;;;3.78;;
15159;SDS011;7680;48.800;9.680;2023-04-07T14:13:04;5.90;;;4.30;;
15159;SDS011;7680;48.800;9.680;2023-04-07T14:15:37;6.15;;;4.85;;
15159;SDS011;7680;48.800;9.680;2023-04-07T14:18:10;5.53;;;4.65;;
15159;SDS011;7680;48.800;9.680;2023-04-07T14:20:43;5.38;;;4.88;;
15159;SDS011;7680;48.800;9.680;2023-04-07T14:23:16;5.53;;;4.93;;
15159;SDS011;7680;48.800;9.680;2023-04-07T14:26:09;5.43;;;4.97;;
15159;SDS011;7680;48.800;9.680;2023-04-07T14:28:42;5.60;;;5.10;;
15159;SDS011;7680;48.800;9.680;2023-04-07T14:31:15;7.70;;;6.15;;
15159;SDS011;7680;48.800;9.680;2023-04-07T14:33:49;5.78;;;5.28;;
15159;SDS011;7680;48.800;9.680;2023-04-07T14:36:22;9.88;;;7.38;;
15159;SDS011;7680;48.800;9.680;2023-04-07T14:38:55;10.15;;;6.68;;
15159;SDS011;7680;48.800;9.680;2023-04-07T14:41:29;6.53;;;5.80;;
15159;SDS011;7680;48.800;9.680;2023-04-07T14:44:02;7.07;;;6.43;;
15159;SDS011;7680;48.800;9.680;2023-04-07T14:46:36;8.00;;;6.07;;
15159;SDS011;7680;48.800;9.680;2023-04-07T14:49:09;6.35;;;5.80;;
15159;SDS011;7680;48.800;9.680;2023-04-07T14:51:43;8.00;;;6.10;;
15159;SDS011;7680;48.800;9.680;2023-04-07T14:54:16;7.50;;;6.50;;
15159;SDS011;7680;48.800;9.680;2023-04-07T14:56:50;7.47;;;6.68;;
15159;SDS011;7680;48.800;9.680;2023-04-07T14:59:23;8.00;;;6.22;;
15159;SDS011;7680;48.800;9.680;2023-04-07T15:01:56;7.35;;;6.10;;
15159;SDS011;7680;48.800;9.680;2023-04-07T15:04:29;8.38;;;6.90;;
15159;SDS011;7680;48.800;9.680;2023-04-07T15:07:03;9.10;;;6.38;;
15159;SDS011;7680;48.800;9.680;2023-04-07T15:09:37;7.53;;;6.82;;
15159;SDS011;7680;48.800;9.680;2023-04-07T15:12:11;7.28;;;6.53;;
15159;SDS011;7680;48.800;9.680;2023-04-07T15:14:44;6.95;;;6.25;;
15159;SDS011;7680;48.800;9.680;2023-04-07T15:17:17;7.97;;;6.30;;
15159;SDS011;7680;48.800;9.680;2023-04-07T15:20:03;6.70;;;6.00;;
15159;SDS011;7680;48.800;9.680;2023-04-07T15:22:37;8.10;;;6.40;;
15159;SDS011;7680;48.800;9.680;2023-04-07T15:25:11;16.05;;;12.50;;
15159;SDS011;7680;48.800;9.680;2023-04-07T15:27:45;40.00;;;30.08;;
15159;SDS011;7680;48.800;9.680;2023-04-07T15:30:18;15.80;;;13.73;;
15159;SDS011;7680;48.800;9.680;2023-04-07T15:32:57;8.70;;;7.97;;
15159;SDS011;7680;48.800;9.680;2023-04-07T15:35:31;7.68;;;6.97;;
15159;SDS011;7680;48.800;9.680;2023-04-07T15:38:04;7.40;;;6.75;;
15159;SDS011;7680;48.800;9.680;2023-04-07T15:40:37;7.20;;;6.32;;
15159;SDS011;7680;48.800;9.680;2023-04-07T15:43:13;8.13;;;6.22;;